sensor_id;sensor_type;location;lat;lon;timestamp;P1;durP1;ratioP1;P2;durP2;ratioP2
7523;SDS011;3803;51.666;7.630;2023-07-29T00:00:06;5.93;;;4.50;;
7523;SDS011;3803;51.666;7.630;2023-07-29T00:00:32;5.72;;;4.57;;
7523;SDS011;3803;51.666;7.630;2023-07-29T00:00:53;5.15;;;4.20;;
7523;SDS011;3803;51.666;7.630;2023-07-29T00:01:15;5.10;;;4.30;;
7523;SDS011;3803;51.666;7.630;2023-07-29T00:01:36;5.70;;;4.57;;
7523;SDS011;3803;51.666;7.630;2023-07-29T00:01:57;5.68;;;4.55;;
7523;SDS011;3803;51.666;7.630;2023-07-29T00:02:17;5.50;;;4.50;;
7523;SDS011;3803;51.666;7.630;2023-07-29T00:02:38;4.90;;;4.30;;
7523;SDS011;3803;51.666;7.630;2023-07-29T00:02:59;5.23;;;4.20;;
7523;SDS011;3803;51.666;7.630;2023-07-29T00:03:19;6.03;;;4.32;;
7523;SDS011;3803;51.666;7.630;2023-07-29T00:03:40;6.63;;;4.35;;
7523;SDS011;3803;51.666;7.630;2023-07-29T00:04:01;6.47;;;4.68;;
7523;SDS011;3803;51.666;7.630;2023-07-29T00:04:22;5.75;;;4.65;;
7523;SDS011;3803;51.666;7.630;2023-07-29T00:04:43;5.20;;;4.50;;
7523;SDS011;3803;51.666;7.630;2023-07-29T00:05:03;5.32;;;4.40;;
7523;SDS011;3803;51.666;7.630;2023-07-29T00:05:24;5.55;;;4.50;;
7523;SDS011;3803;51.666;7.630;2023-07-29T00:05:45;7.40;;;4.72;;
7523;SDS011;3803;51.666;7.630;2023-07-29T00:06:06;6.80;;;4.60;;
7523;SDS011;3803;51.666;7.630;2023-07-29T00:06:27;8.93;;;4.80;;
7523;SDS011;3803;51.666;7.630;2023-07-29T00:06:47;7.10;;;4.65;;
7523;SDS011;3803;51.666;7.630;2023-07-29T00:07:08;7.10;;;4.60;;
7523;SDS011;3803;51.666;7.630;2023-07-29T00:07:29;5.03;;;4.47;;
7523;SDS011;3803;51.666;7.630;2023-07-29T00:07:49;6.30;;;4.77;;
7523;SDS011;3803;51.666;7.630;2023-07-29T00:08:10;6.60;;;4.90;;
7523;SDS011;3803;51.666;7.630;2023-07-29T00:08:31;7.18;;;5.20;;
7523;SDS011;3803;51.666;7.630;2023-07-29T00:08:51;6.57;;;5.00;;
7523;SDS011;3803;51.666;7.630;2023-07-29T00:09:12;6.55;;;5.07;;
7523;SDS011;3803;51.666;7.630;2023-07-29T00:09:33;5.78;;;4.80;;
7523;SDS011;3803;51.666;7.630;2023-07-29T00:09:53;6.80;;;4.77;;
7523;SDS011;3803;51.666;7.630;2023-07-29T00:10:14;6.93;;;4.70;;
7523;SDS011;3803;51.666;7.630;2023-07-29T00:10:38;6.68;;;4.60;;
7523;SDS011;3803;51.666;7.630;2023-07-29T00:11:03;5.93;;;4.40;;
7523;SDS011;3803;51.666;7.630;2023-07-29T00:11:24;7.13;;;4.70;;
7523;SDS011;3803;51.666;7.630;2023-07-29T00:11:45;7.65;;;4.85;;
7523;SDS011;3803;51.666;7.630;2023-07-29T00:12:07;7.85;;;5.28;;
7523;SDS011;3803;51.666;7.630;2023-07-29T00:12:27;7.10;;;5.10;;
7523;SDS011;3803;51.666;7.630;2023-07-29T00:12:48;6.20;;;4.95;;
7523;SDS011;3803;51.666;7.630;2023-07-29T00:13:09;6.10;;;5.03;;
7523;SDS011;3803;51.666;7.630;2023-07-29T00:13:29;6.65;;;5.18;;
7523;SDS011;3803;51.666;7.630;2023-07-29T00:13:50;6.70;;;5.10;;
7523;SDS011;3803;51.666;7.630;2023-07-29T00:14:11;6.53;;;4.85;;
7523;SDS011;3803;51.666;7.630;2023-07-29T00:14:31;5.53;;;4.60;;
7523;SDS011;3803;51.666;7.630;2023-07-29T00:14:52;5.67;;;4.80;;
7523;SDS011;3803;51.666;7.630;2023-07-29T00:15:12;6.38;;;4.60;;
7523;SDS011;3803;51.666;7.630;2023-07-29T00:15:33;6.97;;;4.70;;
7523;SDS011;3803;51.666;7.630;2023-07-29T00:15:54;7.33;;;4.87;;
7523;SDS011;3803;51.666;7.630;2023-07-29T00:16:16;7.07;;;5.10;;
7523;SDS011;3803;51.666;7.630;2023-07-29T00:16:37;6.72;;;4.90;;
7523;SDS011;3803;51.666;7.630;2023-07-29T00:16:58;6.43;;;4.70;;
7523;SDS011;3803;51.666;7.630;2023-07-29T00:17:18;6.90;;;4.57;;
7523;SDS011;3803;51.666;7.630;2023-07-29T00:17:42;9.27;;;5.28;;
7523;SDS011;3803;51.666;7.630;2023-07-29T00:18:03;10.43;;;5.23;;
7523;SDS011;3803;51.666;7.630;2023-07-29T00:18:23;9.70;;;5.50;;
7523;SDS011;3803;51.666;7.630;2023-07-29T00:18:44;7.43;;;4.90;;
7523;SDS011;3803;51.666;7.630;2023-07-29T00:19:04;6.45;;;4.80;;
7523;SDS011;3803;51.666;7.630;2023-07-29T00:19:26;6.55;;;4.70;;
7523;SDS011;3803;51.666;7.630;2023-07-29T00:19:48;6.20;;;4.70;;
7523;SDS011;3803;51.666;7.630;2023-07-29T00:20:09;6.22;;;4.78;;
7523;SDS011;3803;51.666;7.630;2023-07-29T00:20:30;6.40;;;4.95;;
7523;SDS011;3803;51.666;7.630;2023-07-29T00:20:51;6.67;;;4.90;;
7523;SDS011;3803;51.666;7.630;2023-07-29T00:21:11;6.28;;;5.00;;
7523;SDS011;3803;51.666;7.630;2023-07-29T00:21:32;5.90;;;4.80;;
7523;SDS011;3803;51.666;7.630;2023-07-29T00:21:52;6.20;;;5.20;;
7523;SDS011;3803;51.666;7.630;2023-07-29T00:22:13;6.73;;;5.23;;
7523;SDS011;3803;51.666;7.630;2023-07-29T00:22:34;6.80;;;5.27;;
7523;SDS011;3803;51.666;7.630;2023-07-29T00:22:54;6.60;;;5.00;;
7523;SDS011;3803;51.666;7.630;2023-07-29T00:23:16;7.60;;;5.38;;
7523;SDS011;3803;51.666;7.630;2023-07-29T00:23:39;7.95;;;5.55;;
7523;SDS011;3803;51.666;7.630;2023-07-29T00:23:59;7.03;;;5.50;;
7523;SDS011;3803;51.666;7.630;2023-07-29T00:24:21;6.60;;;5.10;;
7523;SDS011;3803;51.666;7.630;2023-07-29T00:24:41;6.63;;;5.20;;
7523;SDS011;3803;51.666;7.630;2023-07-29T00:25:02;6.63;;;5.22;;
7523;SDS011;3803;51.666;7.630;2023-07-29T00:25:23;6.63;;;5.40;;
7523;SDS011;3803;51.666;7.630;2023-07-29T00:25:44;6.45;;;5.30;;
7523;SDS011;3803;51.666;7.630;2023-07-29T00:26:05;6.70;;;5.30;;
7523;SDS011;3803;51.666;7.630;2023-07-29T00:26:26;6.00;;;5.05;;
7523;SDS011;3803;51.666;7.630;2023-07-29T00:26:49;5.43;;;4.85;;
7523;SDS011;3803;51.666;7.630;2023-07-29T00:27:09;5.43;;;4.93;;
7523;SDS011;3803;51.666;7.630;2023-07-29T00:27:30;5.70;;;5.10;;
7523;SDS011;3803;51.666;7.630;2023-07-29T00:27:50;5.72;;;5.00;;
7523;SDS011;3803;51.666;7.630;2023-07-29T00:28:11;5.70;;;5.00;;
7523;SDS011;3803;51.666;7.630;2023-07-29T00:28:33;5.82;;;5.00;;
7523;SDS011;3803;51.666;7.630;2023-07-29T00:28:53;5.97;;;5.15;;
7523;SDS011;3803;51.666;7.630;2023-07-29T00:29:15;7.75;;;5.32;;
7523;SDS011;3803;51.666;7.630;2023-07-29T00:29:36;8.60;;;5.43;;
7523;SDS011;3803;51.666;7.630;2023-07-29T00:29:57;9.63;;;5.35;;
7523;SDS011;3803;51.666;7.630;2023-07-29T00:30:17;7.70;;;5.05;;
7523;SDS011;3803;51.666;7.630;2023-07-29T00:30:38;8.27;;;5.07;;
7523;SDS011;3803;51.666;7.630;2023-07-29T00:30:59;7.60;;;5.07;;
7523;SDS011;3803;51.666;7.630;2023-07-29T00:31:20;7.35;;;5.13;;
7523;SDS011;3803;51.666;7.630;2023-07-29T00:31:41;6.23;;;5.10;;
7523;SDS011;3803;51.666;7.630;2023-07-29T00:32:02;5.82;;;5.07;;
7523;SDS011;3803;51.666;7.630;2023-07-29T00:32:23;6.20;;;5.07;;
7523;SDS011;3803;51.666;7.630;2023-07-29T00:32:43;5.32;;;4.70;;
7523;SDS011;3803;51.666;7.630;2023-07-29T00:33:06;7.35;;;5.00;;
7523;SDS011;3803;51.666;7.630;2023-07-29T00:33:27;8.70;;;4.93;;
7523;SDS011;3803;51.666;7.630;2023-07-29T00:33:48;9.73;;;5.57;;
7523;SDS011;3803;51.666;7.630;2023-07-29T00:34:08;7.75;;;5.28;;
7523;SDS011;3803;51.666;7.630;2023-07-29T00:34:30;8.02;;;5.22;;
7523;SDS011;3803;51.666;7.630;2023-07-29T00:34:51;8.07;;;5.20;;
7523;SDS011;3803;51.666;7.630;2023-07-29T00:35:12;8.30;;;5.35;;
7523;SDS011;3803;51.666;7.630;2023-07-29T00:35:33;6.50;;;5.50;;
7523;SDS011;3803;51.666;7.630;2023-07-29T00:35:54;8.87;;;5.30;;
7523;SDS011;3803;51.666;7.630;2023-07-29T00:36:15;9.33;;;5.57;;
7523;SDS011;3803;51.666;7.630;2023-07-29T00:36:35;9.10;;;5.30;;
7523;SDS011;3803;51.666;7.630;2023-07-29T00:36:56;6.43;;;5.30;;
7523;SDS011;3803;51.666;7.630;2023-07-29T00:37:17;6.45;;;5.22;;
7523;SDS011;3803;51.666;7.630;2023-07-29T00:37:40;7.20;;;5.60;;
7523;SDS011;3803;51.666;7.630;2023-07-29T00:38:00;7.10;;;5.70;;
7523;SDS011;3803;51.666;7.630;2023-07-29T00:38:21;7.30;;;5.70;;
7523;SDS011;3803;51.666;7.630;2023-07-29T00:38:41;6.38;;;5.25;;
7523;SDS011;3803;51.666;7.630;2023-07-29T00:39:03;7.22;;;5.50;;
7523;SDS011;3803;51.666;7.630;2023-07-29T00:39:23;7.00;;;5.50;;
7523;SDS011;3803;51.666;7.630;2023-07-29T00:39:44;7.23;;;5.60;;
7523;SDS011;3803;51.666;7.630;2023-07-29T00:40:09;6.78;;;5.50;;
7523;SDS011;3803;51.666;7.630;2023-07-29T00:40:36;7.70;;;5.80;;
7523;SDS011;3803;51.666;7.630;2023-07-29T00:40:57;7.57;;;5.93;;
7523;SDS011;3803;51.666;7.630;2023-07-29T00:41:19;6.78;;;5.85;;
7523;SDS011;3803;51.666;7.630;2023-07-29T00:41:41;6.70;;;5.80;;
7523;SDS011;3803;51.666;7.630;2023-07-29T00:42:02;7.53;;;5.60;;
7523;SDS011;3803;51.666;7.630;2023-07-29T00:42:24;8.00;;;5.72;;
7523;SDS011;3803;51.666;7.630;2023-07-29T00:42:45;7.70;;;5.80;;
7523;SDS011;3803;51.666;7.630;2023-07-29T00:43:05;7.70;;;5.70;;
7523;SDS011;3803;51.666;7.630;2023-07-29T00:43:26;7.40;;;5.70;;
7523;SDS011;3803;51.666;7.630;2023-07-29T00:43:47;7.20;;;5.50;;
7523;SDS011;3803;51.666;7.630;2023-07-29T00:44:07;6.13;;;5.40;;
7523;SDS011;3803;51.666;7.630;2023-07-29T00:44:28;7.18;;;5.60;;
7523;SDS011;3803;51.666;7.630;2023-07-29T00:44:49;8.00;;;5.90;;
7523;SDS011;3803;51.666;7.630;2023-07-29T00:45:09;8.60;;;6.20;;
7523;SDS011;3803;51.666;7.630;2023-07-29T00:45:30;7.47;;;6.10;;
7523;SDS011;3803;51.666;7.630;2023-07-29T00:45:52;7.07;;;6.03;;
7523;SDS011;3803;51.666;7.630;2023-07-29T00:46:13;7.18;;;5.90;;
7523;SDS011;3803;51.666;7.630;2023-07-29T00:46:35;7.93;;;5.60;;
7523;SDS011;3803;51.666;7.630;2023-07-29T00:46:58;8.23;;;5.60;;
7523;SDS011;3803;51.666;7.630;2023-07-29T00:47:22;8.07;;;5.80;;
7523;SDS011;3803;51.666;7.630;2023-07-29T00:47:46;7.60;;;5.90;;
7523;SDS011;3803;51.666;7.630;2023-07-29T00:48:07;8.80;;;5.70;;
7523;SDS011;3803;51.666;7.630;2023-07-29T00:48:28;9.00;;;5.80;;
7523;SDS011;3803;51.666;7.630;2023-07-29T00:48:50;9.50;;;5.93;;
7523;SDS011;3803;51.666;7.630;2023-07-29T00:49:10;7.45;;;6.03;;
7523;SDS011;3803;51.666;7.630;2023-07-29T00:49:32;7.07;;;5.93;;
7523;SDS011;3803;51.666;7.630;2023-07-29T00:49:52;6.72;;;5.88;;
7523;SDS011;3803;51.666;7.630;2023-07-29T00:50:13;7.07;;;5.70;;
7523;SDS011;3803;51.666;7.630;2023-07-29T00:50:35;6.25;;;5.43;;
7523;SDS011;3803;51.666;7.630;2023-07-29T00:50:57;8.07;;;5.60;;
7523;SDS011;3803;51.666;7.630;2023-07-29T00:51:18;8.07;;;5.40;;
7523;SDS011;3803;51.666;7.630;2023-07-29T00:51:38;8.43;;;5.82;;
7523;SDS011;3803;51.666;7.630;2023-07-29T00:51:59;7.00;;;5.97;;
7523;SDS011;3803;51.666;7.630;2023-07-29T00:52:20;7.40;;;6.20;;
7523;SDS011;3803;51.666;7.630;2023-07-29T00:52:40;7.80;;;6.00;;
7523;SDS011;3803;51.666;7.630;2023-07-29T00:53:01;7.70;;;5.90;;
7523;SDS011;3803;51.666;7.630;2023-07-29T00:53:22;7.18;;;5.50;;
7523;SDS011;3803;51.666;7.630;2023-07-29T00:53:44;7.10;;;5.60;;
7523;SDS011;3803;51.666;7.630;2023-07-29T00:54:05;7.30;;;5.53;;
7523;SDS011;3803;51.666;7.630;2023-07-29T00:54:26;7.25;;;5.80;;
7523;SDS011;3803;51.666;7.630;2023-07-29T00:54:47;6.32;;;5.40;;
7523;SDS011;3803;51.666;7.630;2023-07-29T00:55:10;6.40;;;5.60;;
7523;SDS011;3803;51.666;7.630;2023-07-29T00:55:32;6.10;;;5.50;;
7523;SDS011;3803;51.666;7.630;2023-07-29T00:55:52;6.40;;;5.60;;
7523;SDS011;3803;51.666;7.630;2023-07-29T00:56:13;6.53;;;5.78;;
7523;SDS011;3803;51.666;7.630;2023-07-29T00:56:34;6.72;;;5.90;;
7523;SDS011;3803;51.666;7.630;2023-07-29T00:56:55;6.40;;;5.68;;
7523;SDS011;3803;51.666;7.630;2023-07-29T00:57:16;6.43;;;5.43;;
7523;SDS011;3803;51.666;7.630;2023-07-29T00:57:39;6.43;;;5.22;;
7523;SDS011;3803;51.666;7.630;2023-07-29T00:58:00;7.70;;;5.22;;
7523;SDS011;3803;51.666;7.630;2023-07-29T00:58:21;7.37;;;5.07;;
7523;SDS011;3803;51.666;7.630;2023-07-29T00:58:42;7.75;;;5.20;;
7523;SDS011;3803;51.666;7.630;2023-07-29T00:59:03;6.95;;;5.68;;
7523;SDS011;3803;51.666;7.630;2023-07-29T00:59:24;7.40;;;5.70;;
7523;SDS011;3803;51.666;7.630;2023-07-29T00:59:46;7.03;;;5.70;;
7523;SDS011;3803;51.666;7.630;2023-07-29T01:00:08;6.80;;;5.70;;
7523;SDS011;3803;51.666;7.630;2023-07-29T01:00:29;7.35;;;5.72;;
7523;SDS011;3803;51.666;7.630;2023-07-29T01:00:50;7.30;;;5.80;;
7523;SDS011;3803;51.666;7.630;2023-07-29T01:01:11;7.70;;;5.60;;
7523;SDS011;3803;51.666;7.630;2023-07-29T01:01:32;7.60;;;5.45;;
7523;SDS011;3803;51.666;7.630;2023-07-29T01:01:53;7.28;;;5.10;;
7523;SDS011;3803;51.666;7.630;2023-07-29T01:02:14;6.68;;;5.00;;
7523;SDS011;3803;51.666;7.630;2023-07-29T01:02:35;8.13;;;5.40;;
7523;SDS011;3803;51.666;7.630;2023-07-29T01:02:56;8.80;;;5.85;;
7523;SDS011;3803;51.666;7.630;2023-07-29T01:03:16;8.67;;;5.73;;
7523;SDS011;3803;51.666;7.630;2023-07-29T01:03:37;7.55;;;5.78;;
7523;SDS011;3803;51.666;7.630;2023-07-29T01:03:58;7.00;;;5.50;;
7523;SDS011;3803;51.666;7.630;2023-07-29T01:04:19;6.65;;;5.70;;
7523;SDS011;3803;51.666;7.630;2023-07-29T01:04:40;6.50;;;5.70;;
7523;SDS011;3803;51.666;7.630;2023-07-29T01:05:01;6.78;;;5.90;;
7523;SDS011;3803;51.666;7.630;2023-07-29T01:05:22;6.70;;;5.85;;
7523;SDS011;3803;51.666;7.630;2023-07-29T01:05:50;7.13;;;6.10;;
7523;SDS011;3803;51.666;7.630;2023-07-29T01:06:45;10.07;;;6.40;;
7523;SDS011;3803;51.666;7.630;2023-07-29T01:08:21;7.18;;;5.50;;
7523;SDS011;3803;51.666;7.630;2023-07-29T01:09:57;6.05;;;5.45;;
7523;SDS011;3803;51.666;7.630;2023-07-29T01:11:01;8.13;;;5.88;;
7523;SDS011;3803;51.666;7.630;2023-07-29T01:12:24;7.60;;;5.50;;
7523;SDS011;3803;51.666;7.630;2023-07-29T01:13:50;6.40;;;5.50;;
7523;SDS011;3803;51.666;7.630;2023-07-29T01:14:37;9.48;;;5.75;;
7523;SDS011;3803;51.666;7.630;2023-07-29T01:15:15;9.55;;;5.85;;
7523;SDS011;3803;51.666;7.630;2023-07-29T01:16:41;6.05;;;5.45;;
7523;SDS011;3803;51.666;7.630;2023-07-29T01:17:07;6.13;;;5.22;;
7523;SDS011;3803;51.666;7.630;2023-07-29T01:17:34;6.00;;;5.22;;
7523;SDS011;3803;51.666;7.630;2023-07-29T01:18:47;7.97;;;5.50;;
7523;SDS011;3803;51.666;7.630;2023-07-29T01:19:10;7.63;;;5.38;;
7523;SDS011;3803;51.666;7.630;2023-07-29T01:20:19;6.65;;;5.30;;
7523;SDS011;3803;51.666;7.630;2023-07-29T01:20:40;7.38;;;5.50;;
7523;SDS011;3803;51.666;7.630;2023-07-29T01:21:04;7.00;;;5.65;;
7523;SDS011;3803;51.666;7.630;2023-07-29T01:21:28;6.50;;;5.80;;
7523;SDS011;3803;51.666;7.630;2023-07-29T01:21:49;6.43;;;5.82;;
7523;SDS011;3803;51.666;7.630;2023-07-29T01:22:11;6.50;;;5.80;;
7523;SDS011;3803;51.666;7.630;2023-07-29T01:22:34;7.20;;;5.70;;
7523;SDS011;3803;51.666;7.630;2023-07-29T01:22:56;7.47;;;5.63;;
7523;SDS011;3803;51.666;7.630;2023-07-29T01:23:23;7.03;;;5.40;;
7523;SDS011;3803;51.666;7.630;2023-07-29T01:23:44;7.18;;;5.80;;
7523;SDS011;3803;51.666;7.630;2023-07-29T01:24:05;9.52;;;6.18;;
7523;SDS011;3803;51.666;7.630;2023-07-29T01:24:26;11.73;;;6.57;;
7523;SDS011;3803;51.666;7.630;2023-07-29T01:24:46;13.40;;;6.40;;
7523;SDS011;3803;51.666;7.630;2023-07-29T01:25:07;10.37;;;6.10;;
7523;SDS011;3803;51.666;7.630;2023-07-29T01:25:28;8.20;;;5.55;;
7523;SDS011;3803;51.666;7.630;2023-07-29T01:25:49;6.20;;;5.38;;
7523;SDS011;3803;51.666;7.630;2023-07-29T01:26:09;7.30;;;5.10;;
7523;SDS011;3803;51.666;7.630;2023-07-29T01:26:30;7.23;;;5.20;;
7523;SDS011;3803;51.666;7.630;2023-07-29T01:26:50;7.25;;;5.10;;
7523;SDS011;3803;51.666;7.630;2023-07-29T01:27:11;6.90;;;5.53;;
7523;SDS011;3803;51.666;7.630;2023-07-29T01:27:32;8.57;;;5.78;;
7523;SDS011;3803;51.666;7.630;2023-07-29T01:27:53;9.95;;;5.97;;
7523;SDS011;3803;51.666;7.630;2023-07-29T01:28:15;9.80;;;5.70;;
7523;SDS011;3803;51.666;7.630;2023-07-29T01:28:36;8.50;;;5.53;;
7523;SDS011;3803;51.666;7.630;2023-07-29T01:28:57;8.35;;;5.78;;
7523;SDS011;3803;51.666;7.630;2023-07-29T01:29:18;8.00;;;5.80;;
7523;SDS011;3803;51.666;7.630;2023-07-29T01:29:39;7.90;;;5.70;;
7523;SDS011;3803;51.666;7.630;2023-07-29T01:30:00;7.97;;;5.60;;
7523;SDS011;3803;51.666;7.630;2023-07-29T01:30:25;7.80;;;5.80;;
7523;SDS011;3803;51.666;7.630;2023-07-29T01:30:53;7.25;;;5.53;;
7523;SDS011;3803;51.666;7.630;2023-07-29T01:31:41;7.47;;;5.30;;
7523;SDS011;3803;51.666;7.630;2023-07-29T01:32:07;7.80;;;5.60;;
7523;SDS011;3803;51.666;7.630;2023-07-29T01:33:39;7.10;;;5.63;;
7523;SDS011;3803;51.666;7.630;2023-07-29T01:34:48;6.85;;;5.60;;
7523;SDS011;3803;51.666;7.630;2023-07-29T01:36:21;6.70;;;5.80;;
7523;SDS011;3803;51.666;7.630;2023-07-29T01:36:47;6.57;;;5.70;;
7523;SDS011;3803;51.666;7.630;2023-07-29T01:37:12;6.90;;;5.80;;
7523;SDS011;3803;51.666;7.630;2023-07-29T01:37:39;7.82;;;5.85;;
7523;SDS011;3803;51.666;7.630;2023-07-29T01:38:05;7.15;;;5.72;;
7523;SDS011;3803;51.666;7.630;2023-07-29T01:38:33;7.53;;;5.80;;
7523;SDS011;3803;51.666;7.630;2023-07-29T01:38:56;8.50;;;5.70;;
7523;SDS011;3803;51.666;7.630;2023-07-29T01:39:18;8.32;;;5.63;;
7523;SDS011;3803;51.666;7.630;2023-07-29T01:39:42;7.03;;;5.82;;
7523;SDS011;3803;51.666;7.630;2023-07-29T01:40:07;6.28;;;5.65;;
7523;SDS011;3803;51.666;7.630;2023-07-29T01:40:30;6.18;;;5.57;;
7523;SDS011;3803;51.666;7.630;2023-07-29T01:40:51;6.20;;;5.60;;
7523;SDS011;3803;51.666;7.630;2023-07-29T01:41:14;6.22;;;5.57;;
7523;SDS011;3803;51.666;7.630;2023-07-29T01:41:36;6.93;;;5.70;;
7523;SDS011;3803;51.666;7.630;2023-07-29T01:41:57;8.15;;;5.70;;
7523;SDS011;3803;51.666;7.630;2023-07-29T01:42:18;9.88;;;5.70;;
7523;SDS011;3803;51.666;7.630;2023-07-29T01:42:39;11.65;;;5.90;;
7523;SDS011;3803;51.666;7.630;2023-07-29T01:43:00;9.20;;;5.78;;
7523;SDS011;3803;51.666;7.630;2023-07-29T01:43:21;9.20;;;5.60;;
7523;SDS011;3803;51.666;7.630;2023-07-29T01:43:43;7.32;;;5.40;;
7523;SDS011;3803;51.666;7.630;2023-07-29T01:44:06;7.72;;;5.50;;
7523;SDS011;3803;51.666;7.630;2023-07-29T01:44:27;6.97;;;5.60;;
7523;SDS011;3803;51.666;7.630;2023-07-29T01:44:48;7.80;;;5.70;;
7523;SDS011;3803;51.666;7.630;2023-07-29T01:45:09;7.00;;;5.30;;
7523;SDS011;3803;51.666;7.630;2023-07-29T01:45:30;6.50;;;5.20;;
7523;SDS011;3803;51.666;7.630;2023-07-29T01:45:55;6.45;;;5.30;;
7523;SDS011;3803;51.666;7.630;2023-07-29T01:46:17;7.20;;;5.40;;
7523;SDS011;3803;51.666;7.630;2023-07-29T01:46:37;8.40;;;5.70;;
7523;SDS011;3803;51.666;7.630;2023-07-29T01:46:59;8.70;;;6.10;;
7523;SDS011;3803;51.666;7.630;2023-07-29T01:47:20;7.80;;;6.00;;
7523;SDS011;3803;51.666;7.630;2023-07-29T01:47:42;6.82;;;5.78;;
7523;SDS011;3803;51.666;7.630;2023-07-29T01:48:06;6.33;;;5.50;;
7523;SDS011;3803;51.666;7.630;2023-07-29T01:48:28;6.53;;;5.43;;
7523;SDS011;3803;51.666;7.630;2023-07-29T01:48:50;7.00;;;5.50;;
7523;SDS011;3803;51.666;7.630;2023-07-29T01:49:11;7.03;;;5.50;;
7523;SDS011;3803;51.666;7.630;2023-07-29T01:49:32;6.82;;;5.60;;
7523;SDS011;3803;51.666;7.630;2023-07-29T01:49:53;6.43;;;5.65;;
7523;SDS011;3803;51.666;7.630;2023-07-29T01:50:14;6.70;;;5.60;;
7523;SDS011;3803;51.666;7.630;2023-07-29T01:50:34;7.25;;;5.60;;
7523;SDS011;3803;51.666;7.630;2023-07-29T01:50:55;7.20;;;5.57;;
7523;SDS011;3803;51.666;7.630;2023-07-29T01:51:17;6.47;;;5.63;;
7523;SDS011;3803;51.666;7.630;2023-07-29T01:51:37;9.05;;;5.50;;
7523;SDS011;3803;51.666;7.630;2023-07-29T01:51:58;9.47;;;5.67;;
7523;SDS011;3803;51.666;7.630;2023-07-29T01:52:19;9.23;;;5.40;;
7523;SDS011;3803;51.666;7.630;2023-07-29T01:52:40;5.97;;;5.37;;
7523;SDS011;3803;51.666;7.630;2023-07-29T01:53:01;5.70;;;5.07;;
7523;SDS011;3803;51.666;7.630;2023-07-29T01:53:22;6.40;;;5.68;;
7523;SDS011;3803;51.666;7.630;2023-07-29T01:53:42;6.97;;;5.60;;
7523;SDS011;3803;51.666;7.630;2023-07-29T01:54:03;7.60;;;5.88;;
7523;SDS011;3803;51.666;7.630;2023-07-29T01:54:24;7.45;;;5.40;;
7523;SDS011;3803;51.666;7.630;2023-07-29T01:54:45;8.27;;;5.70;;
7523;SDS011;3803;51.666;7.630;2023-07-29T01:55:06;7.93;;;5.90;;
7523;SDS011;3803;51.666;7.630;2023-07-29T01:55:27;9.00;;;6.00;;
7523;SDS011;3803;51.666;7.630;2023-07-29T01:55:49;8.20;;;6.00;;
7523;SDS011;3803;51.666;7.630;2023-07-29T01:56:10;6.85;;;5.80;;
7523;SDS011;3803;51.666;7.630;2023-07-29T01:56:35;7.25;;;5.90;;
7523;SDS011;3803;51.666;7.630;2023-07-29T01:56:57;7.20;;;5.82;;
7523;SDS011;3803;51.666;7.630;2023-07-29T01:57:33;7.05;;;5.93;;
7523;SDS011;3803;51.666;7.630;2023-07-29T01:57:53;8.45;;;6.10;;
7523;SDS011;3803;51.666;7.630;2023-07-29T01:58:14;8.30;;;5.90;;
7523;SDS011;3803;51.666;7.630;2023-07-29T01:58:39;7.68;;;5.55;;
7523;SDS011;3803;51.666;7.630;2023-07-29T01:59:00;5.97;;;5.38;;
7523;SDS011;3803;51.666;7.630;2023-07-29T01:59:22;6.35;;;5.53;;
7523;SDS011;3803;51.666;7.630;2023-07-29T01:59:43;6.50;;;5.80;;
7523;SDS011;3803;51.666;7.630;2023-07-29T02:00:03;7.43;;;6.32;;
7523;SDS011;3803;51.666;7.630;2023-07-29T02:00:34;7.50;;;6.28;;
7523;SDS011;3803;51.666;7.630;2023-07-29T02:01:41;6.60;;;5.90;;
7523;SDS011;3803;51.666;7.630;2023-07-29T02:02:03;7.25;;;5.97;;
7523;SDS011;3803;51.666;7.630;2023-07-29T02:02:23;8.80;;;6.13;;
7523;SDS011;3803;51.666;7.630;2023-07-29T02:02:44;9.20;;;6.60;;
7523;SDS011;3803;51.666;7.630;2023-07-29T02:03:05;9.20;;;6.50;;
7523;SDS011;3803;51.666;7.630;2023-07-29T02:03:26;8.27;;;6.55;;
7523;SDS011;3803;51.666;7.630;2023-07-29T02:03:47;7.93;;;6.30;;
7523;SDS011;3803;51.666;7.630;2023-07-29T02:04:13;7.20;;;6.03;;
7523;SDS011;3803;51.666;7.630;2023-07-29T02:04:34;6.68;;;5.70;;
7523;SDS011;3803;51.666;7.630;2023-07-29T02:04:55;6.80;;;5.80;;
7523;SDS011;3803;51.666;7.630;2023-07-29T02:05:16;6.70;;;6.00;;
7523;SDS011;3803;51.666;7.630;2023-07-29T02:05:36;9.07;;;6.13;;
7523;SDS011;3803;51.666;7.630;2023-07-29T02:05:57;10.73;;;6.00;;
7523;SDS011;3803;51.666;7.630;2023-07-29T02:06:18;11.00;;;6.10;;
7523;SDS011;3803;51.666;7.630;2023-07-29T02:06:38;9.50;;;6.27;;
7523;SDS011;3803;51.666;7.630;2023-07-29T02:06:59;7.90;;;6.27;;
7523;SDS011;3803;51.666;7.630;2023-07-29T02:07:20;7.68;;;6.22;;
7523;SDS011;3803;51.666;7.630;2023-07-29T02:08:18;6.50;;;5.80;;
7523;SDS011;3803;51.666;7.630;2023-07-29T02:08:39;7.23;;;6.03;;
7523;SDS011;3803;51.666;7.630;2023-07-29T02:09:01;7.82;;;5.88;;
7523;SDS011;3803;51.666;7.630;2023-07-29T02:09:21;7.35;;;5.57;;
7523;SDS011;3803;51.666;7.630;2023-07-29T02:09:42;6.90;;;5.72;;
7523;SDS011;3803;51.666;7.630;2023-07-29T02:10:03;6.77;;;5.90;;
7523;SDS011;3803;51.666;7.630;2023-07-29T02:10:33;7.13;;;6.18;;
7523;SDS011;3803;51.666;7.630;2023-07-29T02:10:53;7.30;;;6.00;;
7523;SDS011;3803;51.666;7.630;2023-07-29T02:11:14;7.50;;;6.20;;
7523;SDS011;3803;51.666;7.630;2023-07-29T02:11:35;7.47;;;6.22;;
7523;SDS011;3803;51.666;7.630;2023-07-29T02:11:56;7.23;;;6.20;;
7523;SDS011;3803;51.666;7.630;2023-07-29T02:12:17;8.55;;;6.07;;
7523;SDS011;3803;51.666;7.630;2023-07-29T02:12:38;8.90;;;6.20;;
7523;SDS011;3803;51.666;7.630;2023-07-29T02:12:58;10.30;;;6.30;;
7523;SDS011;3803;51.666;7.630;2023-07-29T02:13:19;8.88;;;6.40;;
7523;SDS011;3803;51.666;7.630;2023-07-29T02:13:40;8.20;;;6.20;;
7523;SDS011;3803;51.666;7.630;2023-07-29T02:14:01;7.37;;;6.27;;
7523;SDS011;3803;51.666;7.630;2023-07-29T02:14:21;7.32;;;6.18;;
7523;SDS011;3803;51.666;7.630;2023-07-29T02:14:43;7.22;;;6.18;;
7523;SDS011;3803;51.666;7.630;2023-07-29T02:15:04;8.18;;;6.20;;
7523;SDS011;3803;51.666;7.630;2023-07-29T02:15:25;8.68;;;6.28;;
7523;SDS011;3803;51.666;7.630;2023-07-29T02:15:46;9.43;;;6.50;;
7523;SDS011;3803;51.666;7.630;2023-07-29T02:16:06;8.00;;;6.63;;
7523;SDS011;3803;51.666;7.630;2023-07-29T02:16:27;7.72;;;6.63;;
7523;SDS011;3803;51.666;7.630;2023-07-29T02:16:48;7.32;;;6.50;;
7523;SDS011;3803;51.666;7.630;2023-07-29T02:17:09;7.60;;;6.45;;
7523;SDS011;3803;51.666;7.630;2023-07-29T02:17:30;7.55;;;6.53;;
7523;SDS011;3803;51.666;7.630;2023-07-29T02:17:51;7.93;;;6.50;;
7523;SDS011;3803;51.666;7.630;2023-07-29T02:18:12;7.72;;;6.50;;
7523;SDS011;3803;51.666;7.630;2023-07-29T02:18:33;7.43;;;6.40;;
7523;SDS011;3803;51.666;7.630;2023-07-29T02:18:53;7.77;;;6.97;;
7523;SDS011;3803;51.666;7.630;2023-07-29T02:19:14;8.23;;;7.03;;
7523;SDS011;3803;51.666;7.630;2023-07-29T02:19:35;8.65;;;7.10;;
7523;SDS011;3803;51.666;7.630;2023-07-29T02:19:56;8.35;;;6.82;;
7523;SDS011;3803;51.666;7.630;2023-07-29T02:20:16;8.30;;;7.22;;
7523;SDS011;3803;51.666;7.630;2023-07-29T02:20:37;8.10;;;7.20;;
7523;SDS011;3803;51.666;7.630;2023-07-29T02:20:58;8.52;;;7.32;;
7523;SDS011;3803;51.666;7.630;2023-07-29T02:21:18;8.10;;;6.70;;
7523;SDS011;3803;51.666;7.630;2023-07-29T02:21:39;8.07;;;6.50;;
7523;SDS011;3803;51.666;7.630;2023-07-29T02:22:00;8.10;;;6.20;;
7523;SDS011;3803;51.666;7.630;2023-07-29T02:22:21;8.40;;;6.13;;
7523;SDS011;3803;51.666;7.630;2023-07-29T02:22:42;9.60;;;6.20;;
7523;SDS011;3803;51.666;7.630;2023-07-29T02:23:02;9.57;;;6.47;;
7523;SDS011;3803;51.666;7.630;2023-07-29T02:23:23;9.80;;;6.80;;
7523;SDS011;3803;51.666;7.630;2023-07-29T02:23:44;8.75;;;7.05;;
7523;SDS011;3803;51.666;7.630;2023-07-29T02:24:04;7.78;;;6.90;;
7523;SDS011;3803;51.666;7.630;2023-07-29T02:24:25;9.03;;;6.60;;
7523;SDS011;3803;51.666;7.630;2023-07-29T02:24:46;9.30;;;6.40;;
7523;SDS011;3803;51.666;7.630;2023-07-29T02:25:06;8.45;;;6.40;;
7523;SDS011;3803;51.666;7.630;2023-07-29T02:25:27;7.30;;;6.60;;
7523;SDS011;3803;51.666;7.630;2023-07-29T02:25:48;7.65;;;6.43;;
7523;SDS011;3803;51.666;7.630;2023-07-29T02:26:10;8.80;;;6.50;;
7523;SDS011;3803;51.666;7.630;2023-07-29T02:26:31;9.60;;;6.60;;
7523;SDS011;3803;51.666;7.630;2023-07-29T02:26:51;9.52;;;7.15;;
7523;SDS011;3803;51.666;7.630;2023-07-29T02:27:12;9.07;;;7.20;;
7523;SDS011;3803;51.666;7.630;2023-07-29T02:27:33;8.65;;;7.10;;